Time;durP1;ratioP1;P1;durP2;ratioP2;P2;SDS_P1;SDS_P2;PMS_P1;PMS_P2;Temp;Humidity;BMP_temperature;BMP_pressure;BME280_temperature;BME280_humidity;BME280_pressure;Samples;Min_cycle;Max_cycle;Signal;HPM_P1;HPM_P2
2023/01/05 00:01:03;;;;;;;41.22;27.35;;;;;;;7.72;100.00;100624.72;5053857;28;20548;-75
2023/01/05 00:03:28;;;;;;;38.85;26.75;;;;;;;7.64;100.00;100631.50;5055442;28;20052;-74
2023/01/05 00:06:05;;;;;;;38.72;26.25;;;;;;;7.53;100.00;100575.06;5055337;28;20258;-74
2023/01/05 00:08:31;;;;;;;36.08;24.77;;;;;;;7.78;100.00;100622.13;5054021;28;20029;-75
2023/01/05 00:24:41;;;;;;;45.22;29.20;;;;;;;7.80;100.00;100617.06;5054403;28;20052;-75
2023/01/05 00:27:06;;;;;;;41.47;27.58;;;;;;;7.40;100.00;100554.91;5053969;28;20041;-75
2023/01/05 00:29:31;;;;;;;40.55;27.45;;;;;;;7.78;100.00;100613.69;5054903;28;20553;-75
2023/01/05 00:31:57;;;;;;;42.13;28.27;;;;;;;7.83;100.00;100622.09;5054611;28;20033;-75
2023/01/05 00:34:23;;;;;;;40.42;26.98;;;;;;;7.09;100.00;100516.28;5055429;28;20029;-75
2023/01/05 00:36:49;;;;;;;42.00;27.70;;;;;;;7.70;100.00;100601.09;5054927;28;20403;-76
2023/01/05 00:39:14;;;;;;;34.30;25.90;;;;;;;7.79;100.00;100628.88;5054361;28;20127;-75
2023/01/05 00:41:40;;;;;;;38.17;25.33;;;;;;;7.77;100.00;100625.50;5055037;28;20083;-75
2023/01/05 00:44:05;;;;;;;40.67;26.38;;;;;;;7.83;100.00;100617.03;5054873;28;20060;-76
2023/01/05 00:46:30;;;;;;;38.08;25.67;;;;;;;7.34;100.00;100543.13;5054502;28;20029;-75
2023/01/05 00:48:56;;;;;;;37.95;25.15;;;;;;;7.67;100.00;100597.72;5055220;28;20025;-75
2023/01/05 00:51:21;;;;;;;39.45;26.40;;;;;;;7.35;100.00;100556.63;5054643;28;20056;-75
2023/01/05 00:53:47;;;;;;;38.30;27.23;;;;;;;7.39;100.00;100550.72;5054147;28;20036;-76
2023/01/05 00:56:13;;;;;;;41.78;26.05;;;;;;;7.39;100.00;100546.47;5054016;28;20032;-76
2023/01/05 00:58:39;;;;;;;37.97;26.80;;;;;;;7.70;100.00;100598.56;5053368;28;20033;-76
2023/01/05 01:01:09;;;;;;;42.50;27.55;;;;;;;7.72;100.00;100593.50;5054307;28;20112;-75
2023/01/05 01:03:35;;;;;;;39.95;28.27;;;;;;;7.75;100.00;100604.44;5054520;28;20082;-77
2023/01/05 01:06:00;;;;;;;41.50;28.95;;;;;;;7.27;100.00;100541.47;5054520;28;20134;-76
2023/01/05 01:08:25;;;;;;;47.95;31.33;;;;;;;7.49;100.00;100582.66;5054080;28;20531;-77
2023/01/05 01:10:51;;;;;;;45.08;32.22;;;;;;;7.12;100.00;100545.78;5054289;28;20037;-76
2023/01/05 01:13:16;;;;;;;48.00;31.52;;;;;;;7.20;100.00;100529.72;5054480;28;20033;-76
2023/01/05 01:15:42;;;;;;;46.45;31.60;;;;;;;7.20;100.00;100529.72;5054147;28;20036;-76
2023/01/05 01:18:07;;;;;;;47.90;32.05;;;;;;;7.62;100.00;100587.66;5054357;28;20033;-76
2023/01/05 01:20:32;;;;;;;46.30;31.17;;;;;;;7.56;100.00;100576.72;5053822;28;20037;-76
2023/01/05 01:23:01;;;;;;;48.22;32.42;;;;;;;7.24;100.00;100523.81;5052481;28;20116;-76
2023/01/05 01:25:27;;;;;;;48.40;33.50;;;;;;;7.45;100.00;100554.03;5054199;28;20029;-76
2023/01/05 01:27:52;;;;;;;44.83;31.92;;;;;;;7.18;100.00;100483.38;5053630;28;20037;-75
2023/01/05 01:30:18;;;;;;;49.80;34.22;;;;;;;7.06;100.00;100477.56;5053542;28;20032;-76
2023/01/05 01:32:44;;;;;;;54.67;35.03;;;;;;;7.65;100.00;100569.91;5052581;28;20124;-76
2023/01/05 01:35:09;;;;;;;51.35;35.63;;;;;;;7.48;100.00;100550.63;5052941;28;20036;-75
2023/01/05 01:37:35;;;;;;;53.03;35.13;;;;;;;7.38;100.00;100533.84;5052320;28;20037;-76
2023/01/05 01:40:00;;;;;;;49.88;35.50;;;;;;;6.71;100.00;100410.41;5053450;28;20025;-75
2023/01/05 01:42:25;;;;;;;47.10;34.72;;;;;;;7.60;100.00;100551.41;5052903;28;20096;-76
2023/01/05 01:44:55;;;;;;;49.85;36.88;;;;;;;7.52;100.00;100552.31;5053424;28;20108;-75
2023/01/05 01:47:46;;;;;;;42.10;29.80;;;;;;;7.43;100.00;100539.69;5053411;28;20029;-75
2023/01/05 01:50:14;;;;;;;40.33;26.92;;;;;;;7.49;100.00;100537.13;5053345;28;20051;-74
2023/01/05 01:52:41;;;;;;;37.90;26.27;;;;;;;7.10;100.00;100464.91;5053102;28;20106;-75
2023/01/05 01:55:07;;;;;;;42.90;28.13;;;;;;;7.04;100.00;100439.66;5052013;28;20033;-76
2023/01/05 01:57:35;;;;;;;35.70;26.10;;;;;;;7.46;100.00;100512.72;5053366;28;20501;-74
2023/01/05 02:00:05;;;;;;;37.85;26.40;;;;;;;7.21;100.00;100457.25;5052375;28;20115;-74
2023/01/05 02:02:30;;;;;;;40.72;26.52;;;;;;;7.22;100.00;100472.41;5052800;28;20076;-75
2023/01/05 02:05:01;;;;;;;39.67;25.77;;;;;;;6.87;100.00;100426.31;5052043;28;20470;-75
2023/01/05 02:07:32;;;;;;;35.47;25.27;;;;;;;6.98;100.00;100404.31;5052820;28;20074;-74
2023/01/05 02:09:58;;;;;;;37.75;26.45;;;;;;;6.93;100.00;100389.16;5052918;28;20119;-74
2023/01/05 02:12:52;;;;;;;36.80;24.85;;;;;;;7.59;100.00;100515.97;5052611;28;20064;-75
2023/01/05 02:15:33;;;;;;;36.83;26.02;;;;;;;7.53;100.00;100499.16;5051707;28;20120;-74
2023/01/05 02:18:16;;;;;;;37.37;25.73;;;;;;;7.53;100.00;100510.97;5051646;28;20036;-74
2023/01/05 02:21:12;;;;;;;36.92;26.13;;;;;;;7.42;100.00;100487.44;5052577;28;20474;-74
2023/01/05 02:24:18;;;;;;;36.95;26.05;;;;;;;7.63;100.00;100489.81;5051729;28;20029;-74
2023/01/05 02:26:59;;;;;;;41.90;27.40;;;;;;;7.55;100.00;100494.09;5030208;28;20068;-75
2023/01/05 02:29:30;;;;;;;42.92;27.00;;;;;;;7.52;100.00;100499.19;5030346;28;20136;-74
2023/01/05 02:32:02;;;;;;;43.72;30.13;;;;;;;7.43;100.00;100482.38;5043811;28;20037;-75
2023/01/05 02:34:46;;;;;;;;;;;;;;;7.50;100.00;100494.13;5053134;28;20021;-74
2023/01/05 02:37:23;;;;;;;37.97;25.73;;;;;;;7.09;100.00;100429.53;5052262;28;19913;-75
2023/01/05 02:40:12;;;;;;;40.47;26.02;;;;;;;7.44;100.00;100485.75;5051343;28;20119;-75
2023/01/05 02:42:40;;;;;;;41.63;25.70;;;;;;;7.38;100.00;100481.56;5052542;28;20083;-74
2023/01/05 02:45:07;;;;;;;39.78;25.95;;;;;;;6.84;100.00;100391.78;5050880;28;20067;-75
2023/01/05 02:47:44;;;;;;;36.65;25.50;;;;;;;7.26;100.00;100446.25;5052438;28;20029;-74
2023/01/05 02:50:47;;;;;;;40.65;27.00;;;;;;;7.45;100.00;100467.16;5051936;28;20033;-74
2023/01/05 02:53:22;;;;;;;43.80;27.25;;;;;;;7.19;100.00;100448.84;5048723;28;20052;-74
2023/01/05 02:55:56;;;;;;;44.53;27.92;;;;;;;7.32;100.00;100458.00;5052001;28;20029;-74
2023/01/05 02:58:32;;;;;;;38.05;26.83;;;;;;;7.06;100.00;100387.41;5052102;28;20163;-75
2023/01/05 03:01:02;;;;;;;40.50;27.45;;;;;;;6.93;100.00;100374.00;5051663;28;20562;-75
2023/01/05 03:03:41;;;;;;;40.60;26.77;;;;;;;7.38;100.00;100451.22;5031872;28;20053;-75
2023/01/05 03:06:14;;;;;;;44.20;28.10;;;;;;;7.41;100.00;100442.75;5031206;28;20029;-75
2023/01/05 03:08:52;;;;;;;40.45;28.60;;;;;;;7.38;100.00;100440.28;5031843;28;20029;-74
2023/01/05 03:14:37;;;;;;;41.67;28.15;;;;;;;7.29;100.00;100431.03;5032082;28;20474;-73
2023/01/05 03:17:07;;;;;;;42.10;27.70;;;;;;;7.30;100.00;100416.72;5030723;28;20037;-74
2023/01/05 03:19:35;;;;;;;39.67;27.48;;;;;;;7.00;100.00;100368.09;5031046;28;20519;-74
2023/01/05 03:35:59;;;;;;;41.90;26.65;;;;;;;7.37;100.00;100403.19;5031615;28;20144;-74
2023/01/05 03:38:34;;;;;;;43.45;28.13;;;;;;;7.40;100.00;100408.22;5030903;28;20061;-75
2023/01/05 03:41:03;;;;;;;41.70;28.45;;;;;;;7.45;100.00;100407.31;5031681;28;20112;-74
2023/01/05 03:43:33;;;;;;;39.30;27.50;;;;;;;7.49;100.00;100401.38;5031769;28;20052;-75
2023/01/05 03:45:59;;;;;;;41.92;27.67;;;;;;;7.33;100.00;100369.50;5031535;28;20068;-74
2023/01/05 03:48:27;;;;;;;44.13;27.88;;;;;;;7.41;100.00;100369.41;5029937;28;20034;-74
2023/01/05 03:50:53;;;;;;;38.38;26.88;;;;;;;7.31;100.00;100340.84;5031693;28;20029;-74
2023/01/05 03:53:18;;;;;;;41.05;27.85;;;;;;;7.17;100.00;100299.69;5039877;28;20410;-76
2023/01/05 03:55:44;;;;;;;44.05;28.40;;;;;;;7.10;100.00;100303.13;5051202;28;20470;-76
2023/01/05 03:58:09;;;;;;;44.10;27.45;;;;;;;7.59;100.00;100397.06;5051782;28;20024;-74
2023/01/05 04:00:35;;;;;;;42.90;28.67;;;;;;;7.39;100.00;100354.25;5051348;28;20036;-74
2023/01/05 04:03:00;;;;;;;41.75;27.58;;;;;;;7.53;100.00;100387.00;5051133;28;20063;-74
2023/01/05 04:05:26;;;;;;;39.25;27.20;;;;;;;7.55;100.00;100387.84;5050855;28;20033;-74
2023/01/05 04:07:51;;;;;;;40.63;27.52;;;;;;;7.35;100.00;100349.25;5045712;28;20033;-74
2023/01/05 04:10:17;;;;;;;44.90;29.35;;;;;;;7.65;100.00;100382.69;5050943;28;20143;-75
2023/01/05 04:12:43;;;;;;;40.53;27.45;;;;;;;7.14;100.00;100309.84;5049864;28;20055;-74
2023/01/05 04:15:09;;;;;;;32.25;21.52;;;;;;;8.55;100.00;100396.03;5050952;28;20462;-67
2023/01/05 04:17:34;;;;;;;40.47;28.77;;;;;;;7.51;100.00;100404.75;5050659;28;20027;-74
2023/01/05 04:20:00;;;;;;;44.33;28.27;;;;;;;7.38;100.00;100352.59;5051312;28;20020;-74
2023/01/05 04:22:25;;;;;;;46.50;30.02;;;;;;;7.10;100.00;100333.47;5051047;28;20033;-74
2023/01/05 04:24:51;;;;;;;44.13;30.50;;;;;;;7.41;100.00;100371.94;5049618;28;20033;-71
2023/01/05 04:27:16;;;;;;;47.22;31.92;;;;;;;7.39;100.00;100377.03;5047804;28;20056;-71
2023/01/05 04:29:41;;;;;;;46.05;31.60;;;;;;;7.14;100.00;100357.84;5048606;28;20112;-71
2023/01/05 04:32:07;;;;;;;44.17;30.52;;;;;;;7.41;100.00;100384.59;5052848;28;20025;-71
2023/01/05 04:34:32;;;;;;;47.47;32.10;;;;;;;6.52;100.00;100253.91;5053545;28;20040;-72
2023/01/05 04:36:58;;;;;;;42.35;29.98;;;;;;;7.45;100.00;100378.66;5052673;28;20523;-71
2023/01/05 04:39:23;;;;;;;39.20;28.90;;;;;;;6.66;100.00;100255.47;5052667;28;20502;-71
2023/01/05 04:41:49;;;;;;;44.92;29.55;;;;;;;7.46;100.00;100393.00;5053699;28;20021;-71
2023/01/05 04:44:15;;;;;;;41.97;28.95;;;;;;;7.33;100.00;100381.31;5053990;28;20083;-72
2023/01/05 04:46:40;;;;;;;42.13;28.92;;;;;;;7.41;100.00;100380.38;5053930;28;20078;-72
2023/01/05 04:49:06;;;;;;;40.50;28.00;;;;;;;6.52;100.00;100234.53;5053365;28;20032;-71
2023/01/05 04:51:31;;;;;;;41.30;28.70;;;;;;;7.41;100.00;100382.91;5053264;28;20040;-72
2023/01/05 04:53:56;;;;;;;40.72;28.52;;;;;;;7.35;100.00;100362.72;5053549;28;20100;-72
2023/01/05 04:56:22;;;;;;;44.78;29.95;;;;;;;6.97;100.00;100297.31;5053572;28;20025;-71
2023/01/05 04:58:48;;;;;;;46.33;30.20;;;;;;;6.80;100.00;100298.31;5053006;28;20040;-72
2023/01/05 05:01:13;;;;;;;42.88;29.25;;;;;;;6.88;100.00;100299.94;5053351;28;20052;-72
2023/01/05 05:03:39;;;;;;;47.03;31.92;;;;;;;7.11;100.00;100339.34;5053428;28;20051;-72
2023/01/05 05:06:04;;;;;;;55.10;37.67;;;;;;;7.07;100.00;100337.72;5052157;28;20114;-70
2023/01/05 05:08:30;;;;;;;55.97;36.50;;;;;;;7.17;100.00;100349.41;5053495;28;20025;-70
2023/01/05 05:10:55;;;;;;;51.60;36.33;;;;;;;7.18;100.00;100356.97;5051762;28;20476;-70
2023/01/05 05:13:20;;;;;;;52.67;34.85;;;;;;;7.12;100.00;100349.44;5053454;28;20021;-70
2023/01/05 05:15:46;;;;;;;52.53;35.30;;;;;;;6.50;100.00;100255.59;5052659;28;20037;-71
2023/01/05 05:18:12;;;;;;;58.92;37.20;;;;;;;7.13;100.00;100365.47;5052995;28;20061;-70
2023/01/05 05:20:41;;;;;;;58.08;39.28;;;;;;;6.74;100.00;100296.69;5051447;28;20044;-70
2023/01/05 05:23:06;;;;;;;55.70;41.03;;;;;;;6.64;100.00;100276.53;5052979;28;20420;-71
2023/01/05 05:25:32;;;;;;;61.50;39.80;;;;;;;7.22;100.00;100362.84;5051840;28;20052;-71
2023/01/05 05:27:57;;;;;;;58.63;40.28;;;;;;;7.20;100.00;100364.56;5052834;28;20033;-71
2023/01/05 05:30:23;;;;;;;61.75;44.75;;;;;;;6.78;100.00;100317.69;5052614;28;20383;-71
2023/01/05 05:32:48;;;;;;;70.95;49.35;;;;;;;7.12;100.00;100371.34;5052713;28;20041;-71
2023/01/05 05:35:14;;;;;;;75.13;50.38;;;;;;;7.04;100.00;100371.41;5050560;28;20082;-71
2023/01/05 05:37:39;;;;;;;81.35;55.80;;;;;;;6.81;100.00;100336.19;5052736;28;20029;-72
2023/01/05 05:40:05;;;;;;;81.42;52.20;;;;;;;6.54;100.00;100302.72;4698856;28;10001265;-71
2023/01/05 05:42:30;;;;;;;82.68;55.22;;;;;;;6.59;100.00;100323.72;5038681;28;20040;-70
2023/01/05 05:44:56;;;;;;;155.75;65.57;;;;;;;7.71;100.00;100299.13;5047790;28;20174;-70
2023/01/05 05:47:21;;;;;;;90.90;58.92;;;;;;;6.72;100.00;100292.47;5034346;28;20030;-71
2023/01/05 05:49:47;;;;;;;89.93;59.08;;;;;;;6.84;100.00;100308.41;5045125;28;20041;-72
2023/01/05 05:52:12;;;;;;;82.90;59.13;;;;;;;6.84;100.00;100361.44;5037926;28;20032;-72
2023/01/05 05:54:37;;;;;;;91.78;63.55;;;;;;;6.55;100.00;100295.16;5032342;28;20037;-72
2023/01/05 05:57:03;;;;;;;82.70;61.38;;;;;;;6.77;100.00;100348.88;5032112;28;20076;-72
2023/01/05 05:59:28;;;;;;;86.25;62.50;;;;;;;6.26;100.00;100265.88;5032981;28;20033;-71
2023/01/05 06:01:53;;;;;;;84.07;60.40;;;;;;;6.61;100.00;100343.09;5032510;28;20408;-73
2023/01/05 06:04:19;;;;;;;89.03;65.25;;;;;;;6.04;100.00;100288.69;5032594;28;20463;-73
2023/01/05 06:06:44;;;;;;;108.78;73.18;;;;;;;6.08;100.00;100257.53;5032918;28;20112;-72
2023/01/05 06:09:10;;;;;;;125.50;86.50;;;;;;;6.63;100.00;100310.25;5032901;28;20037;-71
2023/01/05 06:11:35;;;;;;;110.75;77.35;;;;;;;6.25;100.00;100249.88;5032253;28;20034;-71
2023/01/05 06:14:01;;;;;;;174.15;108.25;;;;;;;6.31;100.00;100287.72;5032839;28;20040;-74
2023/01/05 06:16:27;;;;;;;177.70;117.75;;;;;;;6.16;100.00;100249.13;5031499;28;20041;-72
2023/01/05 06:18:53;;;;;;;127.75;90.90;;;;;;;6.84;100.00;100336.19;5032637;28;20025;-73
2023/01/05 06:21:20;;;;;;;118.60;85.63;;;;;;;6.21;100.00;100288.63;5032733;28;20065;-74
2023/01/05 06:23:45;;;;;;;113.93;82.50;;;;;;;6.56;100.00;100306.06;5032974;28;20029;-73
2023/01/05 06:26:11;;;;;;;109.13;78.38;;;;;;;6.76;100.00;100360.66;5031645;28;20083;-73
2023/01/05 06:28:36;;;;;;;104.93;72.07;;;;;;;6.34;100.00;100280.09;5032500;28;20033;-73
2023/01/05 06:31:02;;;;;;;86.53;60.28;;;;;;;6.80;100.00;100353.91;5032147;28;20103;-73
2023/01/05 06:33:27;;;;;;;76.07;50.85;;;;;;;6.76;100.00;100355.63;5032431;28;20484;-74
2023/01/05 06:35:52;;;;;;;63.88;43.50;;;;;;;6.44;100.00;100291.84;5031331;28;20037;-74
2023/01/05 06:38:20;;;;;;;62.92;39.85;;;;;;;6.54;100.00;100297.66;5032537;28;20029;-74
2023/01/05 06:40:46;;;;;;;60.35;37.70;;;;;;;6.26;100.00;100256.59;5032269;28;20029;-74
2023/01/05 06:43:12;;;;;;;55.10;36.05;;;;;;;6.72;100.00;100318.59;5032248;28;20037;-74
2023/01/05 06:45:37;;;;;;;60.05;38.90;;;;;;;6.56;100.00;100266.50;5032144;28;20108;-74
2023/01/05 06:48:03;;;;;;;63.08;43.60;;;;;;;6.49;100.00;100236.25;5030890;28;20101;-73
2023/01/05 06:50:29;;;;;;;50.65;35.05;;;;;;;6.53;100.00;100264.00;5032066;28;20063;-74
2023/01/05 06:52:55;;;;;;;52.47;34.42;;;;;;;6.93;100.00;100322.66;5032172;28;20656;-74
2023/01/05 06:55:23;;;;;;;54.47;37.53;;;;;;;6.53;100.00;100232.88;5032343;28;20034;-74
2023/01/05 06:57:49;;;;;;;87.13;64.55;;;;;;;6.95;100.00;100329.34;5032325;28;20033;-73
2023/01/05 07:00:15;;;;;;;90.55;71.13;;;;;;;7.06;100.00;100326.75;5030579;28;20056;-74
2023/01/05 07:02:40;;;;;;;87.55;66.38;;;;;;;7.17;100.00;100330.00;5031793;28;20045;-74
2023/01/05 07:05:06;;;;;;;90.85;68.20;;;;;;;7.31;100.00;100318.09;5032000;28;20034;-74
2023/01/05 07:07:32;;;;;;;70.40;49.38;;;;;;;7.18;100.00;100305.56;5032255;28;20040;-74
2023/01/05 07:09:58;;;;;;;66.35;47.72;;;;;;;7.03;100.00;100256.03;5031769;28;20116;-74
2023/01/05 07:12:23;;;;;;;57.15;40.90;;;;;;;7.08;100.00;100269.44;5031863;28;20030;-74
2023/01/05 07:14:49;;;;;;;45.55;28.88;;;;;;;7.38;100.00;100318.88;5030717;28;20040;-74
2023/01/05 07:17:14;;;;;;;40.13;25.90;;;;;;;6.92;100.00;100223.25;5031653;28;20037;-74
2023/01/05 07:19:40;;;;;;;39.35;25.27;;;;;;;7.50;100.00;100306.97;5030380;28;20027;-74
2023/01/05 07:22:06;;;;;;;40.08;26.52;;;;;;;7.20;100.00;100259.22;5030208;28;20041;-74
2023/01/05 07:24:32;;;;;;;46.08;29.45;;;;;;;7.63;100.00;100300.06;5031506;28;20057;-75
2023/01/05 07:26:58;;;;;;;51.20;37.83;;;;;;;7.20;100.00;100223.81;5030672;28;20029;-72
2023/01/05 07:29:23;;;;;;;57.78;42.97;;;;;;;7.72;100.00;100297.44;5030236;28;20059;-73
2023/01/05 07:31:51;;;;;;;50.40;32.92;;;;;;;7.73;100.00;100322.72;5031317;28;20041;-72
2023/01/05 07:34:20;;;;;;;44.70;34.20;;;;;;;7.62;100.00;100284.06;5031569;28;20029;-74
2023/01/05 07:36:46;;;;;;;50.08;35.53;;;;;;;7.70;100.00;100309.28;5029924;28;20128;-74
2023/01/05 07:39:12;;;;;;;63.22;39.30;;;;;;;7.37;100.00;100213.53;5031138;28;20033;-74
2023/01/05 07:41:37;;;;;;;51.70;35.05;;;;;;;7.56;100.00;100240.28;5031778;28;20025;-73
2023/01/05 07:44:03;;;;;;;65.50;42.47;;;;;;;7.44;100.00;100205.00;5030460;28;20527;-73
2023/01/05 07:46:29;;;;;;;46.33;34.15;;;;;;;8.05;100.00;100291.97;5030235;28;20037;-72
2023/01/05 07:48:54;;;;;;;53.53;35.03;;;;;;;7.87;100.00;100224.69;5030143;28;20029;-73
2023/01/05 07:51:21;;;;;;;44.00;29.35;;;;;;;8.13;100.00;100249.66;5030038;28;20029;-70
2023/01/05 07:53:47;;;;;;;56.25;38.67;;;;;;;8.58;100.00;100273.50;5029447;28;20531;-72
2023/01/05 07:56:12;;;;;;;39.25;27.05;;;;;;;8.43;100.00;100274.59;5029190;28;20041;-71
2023/01/05 07:58:38;;;;;;;44.13;30.30;;;;;;;8.37;100.00;100220.66;5030908;28;20041;-72
2023/01/05 08:01:07;;;;;;;48.22;35.22;;;;;;;8.92;100.00;100277.19;5031279;28;20053;-72
2023/01/05 08:03:32;;;;;;;45.55;31.13;;;;;;;8.28;100.00;100195.47;5029393;28;20424;-72
2023/01/05 08:06:03;;;;;;;48.47;31.63;;;;;;;8.43;100.00;100267.00;5031846;28;20037;-71
2023/01/05 08:08:29;;;;;;;46.00;30.40;;;;;;;8.54;100.00;100247.38;5035175;28;20041;-73
2023/01/05 08:10:54;;;;;;;39.50;28.25;;;;;;;8.37;100.00;100215.56;5033947;28;20034;-72
2023/01/05 08:16:04;;;;;;;45.20;31.33;;;;;;;8.31;100.00;100201.31;5034404;28;20120;-71
2023/01/05 08:18:29;;;;;;;50.17;35.47;;;;;;;8.81;100.00;100255.41;5034648;28;20539;-73
2023/01/05 08:20:57;;;;;;;48.03;35.20;;;;;;;8.87;100.00;100284.06;5033383;28;20113;-72
2023/01/05 08:23:27;;;;;;;56.00;39.17;;;;;;;9.15;100.00;100266.69;5033457;28;20025;-74
2023/01/05 08:25:55;;;;;;;67.30;50.75;;;;;;;8.89;100.00;100220.66;5035177;28;20037;-74
2023/01/05 08:28:22;;;;;;;56.22;43.78;;;;;;;9.14;100.00;100257.38;5034739;28;20041;-74
2023/01/05 08:30:48;;;;;;;65.10;48.63;;;;;;;8.90;100.00;100255.25;5034834;28;20025;-74
2023/01/05 08:33:13;;;;;;;54.03;40.10;;;;;;;8.26;100.00;100170.16;5033030;28;20056;-73
2023/01/05 08:35:44;;;;;;;54.67;38.90;;;;;;;8.35;100.00;100171.72;5034572;28;20025;-74
2023/01/05 08:38:10;;;;;;;40.00;28.65;;;;;;;9.03;100.00;100234.72;5034755;28;20040;-73
2023/01/05 08:40:36;;;;;;;42.42;29.02;;;;;;;8.83;100.00;100236.81;5033025;28;20029;-73
2023/01/05 08:43:03;;;;;;;44.55;32.10;;;;;;;8.77;100.00;100149.00;5033076;28;20040;-74
2023/01/05 08:45:30;;;;;;;43.35;29.30;;;;;;;8.92;100.00;100191.00;5034668;28;20486;-73
2023/01/05 08:47:55;;;;;;;40.55;29.67;;;;;;;8.89;100.00;100224.03;5033427;28;20071;-73
2023/01/05 08:50:21;;;;;;;46.28;30.42;;;;;;;8.43;100.00;100157.22;5034234;28;20104;-72
2023/01/05 08:52:46;;;;;;;40.90;28.83;;;;;;;8.38;100.00;100142.09;5034212;28;20502;-72
2023/01/05 08:55:11;;;;;;;47.95;31.17;;;;;;;8.83;100.00;100218.22;5033280;28;20037;-71
2023/01/05 08:57:37;;;;;;;51.65;32.22;;;;;;;8.43;100.00;100140.34;5033809;28;20147;-72
2023/01/05 09:00:04;;;;;;;57.47;31.92;;;;;;;8.28;100.00;100134.69;5032655;28;20033;-71
2023/01/05 09:02:30;;;;;;;59.30;37.17;;;;;;;8.36;100.00;100161.53;5032279;28;20077;-72
2023/01/05 09:04:55;;;;;;;60.67;37.80;;;;;;;8.51;100.00;100161.31;5033713;28;20104;-71
2023/01/05 09:07:21;;;;;;;64.82;38.95;;;;;;;8.90;100.00;100202.88;5033502;28;20037;-70
2023/01/05 09:09:46;;;;;;;63.15;37.67;;;;;;;8.46;100.00;100112.41;5032133;28;20048;-71
2023/01/05 09:12:12;;;;;;;83.07;44.22;;;;;;;8.79;100.00;100148.16;5032791;28;20026;-71
2023/01/05 09:14:37;;;;;;;80.07;42.92;;;;;;;8.83;100.00;100170.06;5033711;28;20124;-71
2023/01/05 09:17:02;;;;;;;117.72;56.13;;;;;;;8.62;100.00;100177.16;5032689;28;20034;-70
2023/01/05 09:19:28;;;;;;;114.53;57.22;;;;;;;8.77;100.00;100148.19;5032402;28;20087;-71
2023/01/05 09:21:54;;;;;;;110.40;56.05;;;;;;;8.77;100.00;100131.25;5031750;28;20043;-71
2023/01/05 09:24:20;;;;;;;96.38;52.38;;;;;;;8.88;100.00;100153.03;5031467;28;20098;-71
2023/01/05 09:26:46;;;;;;;90.45;49.03;;;;;;;9.06;100.00;100178.06;5032912;28;20080;-71
2023/01/05 09:29:12;;;;;;;99.55;54.80;;;;;;;8.89;100.00;100127.69;5033189;28;20017;-71
2023/01/05 09:31:40;;;;;;;113.10;59.40;;;;;;;8.78;100.00;100078.88;5033475;28;20048;-73
2023/01/05 09:34:05;;;;;;;119.05;61.80;;;;;;;9.14;100.00;100155.94;5033672;28;20029;-72
2023/01/05 09:36:31;;;;;;;119.72;62.30;;;;;;;9.00;100.00;100156.19;5032783;28;20037;-71
2023/01/05 09:38:57;;;;;;;130.38;65.85;;;;;;;9.14;100.00;100146.63;5033195;28;20447;-71
2023/01/05 09:41:25;;;;;;;114.18;60.40;;;;;;;9.03;100.00;100145.97;5032848;28;20033;-72
2023/01/05 09:43:58;;;;;;;130.25;68.78;;;;;;;9.18;100.00;100127.94;5031995;28;20071;-73
2023/01/05 09:46:32;;;;;;;137.35;72.25;;;;;;;8.74;100.00;100070.50;5033322;28;20037;-71
2023/01/05 09:49:03;;;;;;;129.50;66.95;;;;;;;9.25;100.00;100111.72;5033239;28;20026;-72
2023/01/05 09:51:29;;;;;;;128.63;69.05;;;;;;;9.37;100.00;100095.41;5033038;28;20029;-73
2023/01/05 09:53:56;;;;;;;137.85;74.45;;;;;;;9.53;100.00;100095.06;5033101;28;20101;-73
2023/01/05 09:56:26;;;;;;;138.73;70.43;;;;;;;8.55;100.00;99956.88;5032920;28;20037;-73
2023/01/05 09:59:03;;;;;;;142.82;72.10;;;;;;;9.48;100.00;100063.91;5032886;28;20040;-73
2023/01/05 10:01:32;;;;;;;156.93;79.75;;;;;;;9.55;100.00;100067.09;5033064;28;20029;-73
2023/01/05 10:04:02;;;;;;;155.40;78.95;;;;;;;9.15;100.00;100018.94;5032748;28;20049;-73
2023/01/05 10:06:33;;;;;;;150.18;77.65;;;;;;;9.18;100.00;99993.53;5032811;28;20037;-73
2023/01/05 10:08:59;;;;;;;112.75;56.17;;;;;;;9.49;100.00;99986.03;5034465;28;20488;-74
2023/01/05 10:14:20;;;;;;;146.82;74.78;;;;;;;9.37;100.00;100052.28;5051876;28;20136;-72
2023/01/05 10:16:46;;;;;;;155.48;77.30;;;;;;;9.54;100.00;100047.69;4701028;28;9999741;-71
2023/01/05 10:19:19;;;;;;;160.95;79.75;;;;;;;9.38;100.00;100042.13;5047810;28;20033;-70
2023/01/05 10:22:04;;;;;;;157.93;78.38;;;;;;;9.59;100.00;100038.25;5048784;28;20037;-71
2023/01/05 10:24:46;;;;;;;142.15;70.70;;;;;;;9.70;100.00;100025.31;5048640;28;20025;-70
2023/01/05 10:27:22;;;;;;;143.85;72.35;;;;;;;9.93;100.00;100030.66;5048525;28;20090;-70
2023/01/05 10:29:51;;;;;;;135.43;70.18;;;;;;;9.80;100.00;100014.91;5047689;28;20029;-71
2023/01/05 10:32:25;;;;;;;135.75;68.50;;;;;;;9.90;100.00;100023.13;5049103;28;20047;-71
2023/01/05 10:35:22;;;;;;;145.10;73.53;;;;;;;10.14;100.00;100007.31;5048500;28;20130;-74
2023/01/05 10:38:04;;;;;;;122.45;64.47;;;;;;;10.30;100.00;99991.63;5047473;28;20037;-71
2023/01/05 10:40:32;;;;;;;103.72;58.42;;;;;;;10.50;100.00;99985.19;5042301;28;20419;-72
2023/01/05 10:43:06;;;;;;;101.30;56.00;;;;;;;10.55;100.00;99976.56;5028177;28;20041;-71
2023/01/05 10:45:32;;;;;;;84.43;48.00;;;;;;;10.22;100.00;99919.84;5037488;28;20030;-73
2023/01/05 10:47:58;;;;;;;90.63;59.35;;;;;;;9.76;100.00;99839.88;5048888;28;20052;-74
2023/01/05 10:50:34;;;;;;;87.57;51.15;;;;;;;10.60;100.00;99920.50;5052200;28;20033;-75
2023/01/05 10:53:08;;;;;;;102.10;53.28;;;;;;;10.68;100.00;99957.53;5052057;28;20135;-73
2023/01/05 10:55:42;;;;;;;112.60;62.17;;;;;;;10.81;100.00;99965.63;5051023;28;20032;-74
2023/01/05 10:58:24;;;;;;;91.13;49.20;;;;;;;10.89;100.00;99944.19;5050903;28;20111;-72
2023/01/05 11:00:51;;;;;;;;;;;;;;;10.78;100.00;99947.91;5051849;28;20040;-72
2023/01/05 11:03:20;;;;;;;84.10;48.88;;;;;;;10.36;100.00;99853.41;5051200;28;19927;-71
2023/01/05 11:05:47;;;;;;;77.45;44.50;;;;;;;10.37;100.00;99855.09;5050814;28;20033;-73
2023/01/05 11:08:18;;;;;;;76.93;45.33;;;;;;;10.98;100.00;99931.19;5050123;28;20045;-73
2023/01/05 11:10:55;;;;;;;84.72;45.88;;;;;;;10.32;100.00;99837.44;5049138;28;20555;-73
2023/01/05 11:13:33;;;;;;;81.65;46.78;;;;;;;10.94;100.00;99900.81;5051597;28;20032;-73
2023/01/05 11:16:22;;;;;;;86.32;48.70;;;;;;;10.45;100.00;99853.16;5051425;28;20040;-74
2023/01/05 11:19:03;;;;;;;86.95;49.72;;;;;;;10.92;100.00;99902.56;5051478;28;20479;-73
2023/01/05 11:21:34;;;;;;;82.85;49.60;;;;;;;10.65;100.00;99911.03;5051745;28;20522;-73
2023/01/05 11:24:00;;;;;;;90.45;50.35;;;;;;;10.10;100.00;99831.28;5051955;28;20056;-74
2023/01/05 11:26:33;;;;;;;86.78;50.28;;;;;;;10.31;100.00;99796.81;5051281;28;20118;-74
2023/01/05 11:29:08;;;;;;;84.85;48.53;;;;;;;10.77;100.00;99883.53;5051907;28;20028;-73
2023/01/05 11:31:56;;;;;;;86.28;48.53;;;;;;;10.86;100.00;99875.63;5050222;28;20029;-74
2023/01/05 11:34:34;;;;;;;90.50;50.25;;;;;;;10.75;100.00;99880.22;5050902;28;20036;-73
2023/01/05 11:37:18;;;;;;;85.05;47.17;;;;;;;10.09;100.00;99738.19;5051509;28;20029;-74
2023/01/05 11:39:55;;;;;;;79.25;47.75;;;;;;;11.02;100.00;99855.63;5050482;28;20108;-73
2023/01/05 11:42:24;;;;;;;81.70;45.78;;;;;;;10.95;100.00;99860.06;5050521;28;20033;-74
2023/01/05 11:44:59;;;;;;;83.50;47.08;;;;;;;11.12;100.00;99865.47;5051264;28;20029;-74
2023/01/05 11:47:28;;;;;;;82.50;46.72;;;;;;;11.07;100.00;99872.38;5051245;28;20092;-74
2023/01/05 11:50:25;;;;;;;82.85;47.95;;;;;;;10.97;100.00;99850.66;5051464;28;20021;-73
2023/01/05 11:52:54;;;;;;;81.32;47.33;;;;;;;10.81;100.00;99782.56;5049260;28;20045;-72